sensor_id;sensor_type;location;lat;lon;timestamp;P1;durP1;ratioP1;P2;durP2;ratioP2
11498;SDS011;5806;48.748;9.278;2023-03-13T00:03:53;22.70;;;4.50;;
11498;SDS011;5806;48.748;9.278;2023-03-13T00:06:25;18.60;;;3.67;;
11498;SDS011;5806;48.748;9.278;2023-03-13T00:08:56;13.83;;;2.93;;
11498;SDS011;5806;48.748;9.278;2023-03-13T00:11:27;16.90;;;3.07;;
11498;SDS011;5806;48.748;9.278;2023-03-13T00:13:55;14.27;;;3.23;;
11498;SDS011;5806;48.748;9.278;2023-03-13T00:16:24;16.83;;;3.30;;
11498;SDS011;5806;48.748;9.278;2023-03-13T00:18:53;14.57;;;3.13;;
11498;SDS011;5806;48.748;9.278;2023-03-13T00:21:22;16.93;;;3.40;;
11498;SDS011;5806;48.748;9.278;2023-03-13T00:23:51;13.20;;;3.03;;
11498;SDS011;5806;48.748;9.278;2023-03-13T00:26:20;17.20;;;3.40;;
11498;SDS011;5806;48.748;9.278;2023-03-13T00:28:50;12.37;;;3.37;;
11498;SDS011;5806;48.748;9.278;2023-03-13T00:31:22;16.70;;;3.77;;
11498;SDS011;5806;48.748;9.278;2023-03-13T00:33:52;11.93;;;3.13;;
11498;SDS011;5806;48.748;9.278;2023-03-13T00:36:22;14.03;;;3.40;;
11498;SDS011;5806;48.748;9.278;2023-03-13T00:38:52;14.37;;;3.27;;
11498;SDS011;5806;48.748;9.278;2023-03-13T00:41:24;10.17;;;2.63;;
11498;SDS011;5806;48.748;9.278;2023-03-13T00:43:53;11.70;;;3.53;;
11498;SDS011;5806;48.748;9.278;2023-03-13T00:46:22;14.07;;;3.27;;
11498;SDS011;5806;48.748;9.278;2023-03-13T00:48:51;14.90;;;3.57;;
11498;SDS011;5806;48.748;9.278;2023-03-13T00:51:20;16.40;;;3.20;;
11498;SDS011;5806;48.748;9.278;2023-03-13T00:53:51;16.00;;;3.00;;
11498;SDS011;5806;48.748;9.278;2023-03-13T00:56:19;11.57;;;2.87;;
11498;SDS011;5806;48.748;9.278;2023-03-13T00:58:48;14.37;;;3.37;;
11498;SDS011;5806;48.748;9.278;2023-03-13T01:03:50;12.03;;;2.90;;
11498;SDS011;5806;48.748;9.278;2023-03-13T01:06:22;20.97;;;3.63;;
11498;SDS011;5806;48.748;9.278;2023-03-13T01:08:52;18.70;;;4.13;;
11498;SDS011;5806;48.748;9.278;2023-03-13T01:11:21;13.80;;;3.73;;
11498;SDS011;5806;48.748;9.278;2023-03-13T01:13:57;17.43;;;3.47;;
11498;SDS011;5806;48.748;9.278;2023-03-13T01:16:27;11.97;;;3.30;;
11498;SDS011;5806;48.748;9.278;2023-03-13T01:19:07;13.13;;;3.73;;
11498;SDS011;5806;48.748;9.278;2023-03-13T01:21:30;14.73;;;3.33;;
11498;SDS011;5806;48.748;9.278;2023-03-13T01:23:58;16.00;;;4.30;;
11498;SDS011;5806;48.748;9.278;2023-03-13T01:26:26;17.80;;;3.70;;
11498;SDS011;5806;48.748;9.278;2023-03-13T01:28:54;16.60;;;3.80;;
11498;SDS011;5806;48.748;9.278;2023-03-13T01:31:26;16.00;;;3.33;;
11498;SDS011;5806;48.748;9.278;2023-03-13T01:33:56;20.17;;;4.30;;
11498;SDS011;5806;48.748;9.278;2023-03-13T01:36:25;15.43;;;3.47;;
11498;SDS011;5806;48.748;9.278;2023-03-13T01:38:54;13.53;;;3.10;;
11498;SDS011;5806;48.748;9.278;2023-03-13T01:41:24;12.97;;;3.27;;
11498;SDS011;5806;48.748;9.278;2023-03-13T01:43:53;21.97;;;3.87;;
11498;SDS011;5806;48.748;9.278;2023-03-13T01:46:22;16.70;;;3.37;;
11498;SDS011;5806;48.748;9.278;2023-03-13T01:51:44;15.20;;;3.57;;
11498;SDS011;5806;48.748;9.278;2023-03-13T01:54:20;14.40;;;3.60;;
11498;SDS011;5806;48.748;9.278;2023-03-13T01:56:57;18.17;;;3.87;;
11498;SDS011;5806;48.748;9.278;2023-03-13T01:59:48;16.57;;;3.93;;
11498;SDS011;5806;48.748;9.278;2023-03-13T02:02:17;13.90;;;3.37;;
11498;SDS011;5806;48.748;9.278;2023-03-13T02:04:47;14.43;;;3.57;;
11498;SDS011;5806;48.748;9.278;2023-03-13T02:07:18;19.93;;;3.90;;
11498;SDS011;5806;48.748;9.278;2023-03-13T02:09:48;15.07;;;3.37;;
11498;SDS011;5806;48.748;9.278;2023-03-13T02:12:21;15.60;;;3.77;;
11498;SDS011;5806;48.748;9.278;2023-03-13T02:14:49;13.60;;;3.47;;
11498;SDS011;5806;48.748;9.278;2023-03-13T02:17:17;13.57;;;3.07;;
11498;SDS011;5806;48.748;9.278;2023-03-13T02:19:48;13.77;;;3.07;;
11498;SDS011;5806;48.748;9.278;2023-03-13T02:22:30;9.60;;;2.63;;
11498;SDS011;5806;48.748;9.278;2023-03-13T02:27:51;10.33;;;2.87;;
11498;SDS011;5806;48.748;9.278;2023-03-13T02:30:21;10.23;;;2.87;;
11498;SDS011;5806;48.748;9.278;2023-03-13T02:32:50;11.20;;;2.40;;
11498;SDS011;5806;48.748;9.278;2023-03-13T02:35:17;11.57;;;2.67;;
11498;SDS011;5806;48.748;9.278;2023-03-13T02:37:52;12.63;;;2.90;;
11498;SDS011;5806;48.748;9.278;2023-03-13T02:40:20;12.47;;;2.90;;
11498;SDS011;5806;48.748;9.278;2023-03-13T02:42:57;10.07;;;3.17;;
11498;SDS011;5806;48.748;9.278;2023-03-13T02:45:27;13.03;;;3.10;;
11498;SDS011;5806;48.748;9.278;2023-03-13T02:47:54;14.27;;;2.57;;
11498;SDS011;5806;48.748;9.278;2023-03-13T02:50:22;9.97;;;2.53;;
11498;SDS011;5806;48.748;9.278;2023-03-13T02:52:58;8.60;;;2.23;;
11498;SDS011;5806;48.748;9.278;2023-03-13T02:55:30;8.73;;;2.27;;
11498;SDS011;5806;48.748;9.278;2023-03-13T02:58:02;8.70;;;2.40;;
11498;SDS011;5806;48.748;9.278;2023-03-13T03:00:29;9.13;;;2.47;;
11498;SDS011;5806;48.748;9.278;2023-03-13T03:02:57;10.30;;;2.20;;
11498;SDS011;5806;48.748;9.278;2023-03-13T03:05:24;11.70;;;2.17;;
11498;SDS011;5806;48.748;9.278;2023-03-13T03:07:52;7.03;;;2.07;;
11498;SDS011;5806;48.748;9.278;2023-03-13T03:10:19;9.47;;;2.30;;
11498;SDS011;5806;48.748;9.278;2023-03-13T03:12:47;9.80;;;2.40;;
11498;SDS011;5806;48.748;9.278;2023-03-13T03:15:14;10.17;;;2.67;;
11498;SDS011;5806;48.748;9.278;2023-03-13T03:17:42;8.30;;;1.90;;
11498;SDS011;5806;48.748;9.278;2023-03-13T03:20:09;10.17;;;1.70;;
11498;SDS011;5806;48.748;9.278;2023-03-13T03:22:38;10.10;;;2.03;;
11498;SDS011;5806;48.748;9.278;2023-03-13T03:25:06;6.60;;;2.07;;
11498;SDS011;5806;48.748;9.278;2023-03-13T03:27:34;9.47;;;1.83;;
11498;SDS011;5806;48.748;9.278;2023-03-13T03:30:05;8.23;;;2.73;;
11498;SDS011;5806;48.748;9.278;2023-03-13T03:32:34;7.17;;;1.70;;
11498;SDS011;5806;48.748;9.278;2023-03-13T03:35:01;5.60;;;1.60;;
11498;SDS011;5806;48.748;9.278;2023-03-13T03:37:29;8.50;;;1.80;;
11498;SDS011;5806;48.748;9.278;2023-03-13T03:39:56;7.17;;;1.60;;
11498;SDS011;5806;48.748;9.278;2023-03-13T03:42:24;5.43;;;1.50;;
11498;SDS011;5806;48.748;9.278;2023-03-13T03:44:51;6.27;;;1.90;;
11498;SDS011;5806;48.748;9.278;2023-03-13T03:47:19;9.50;;;1.60;;
11498;SDS011;5806;48.748;9.278;2023-03-13T03:49:46;5.60;;;1.80;;
11498;SDS011;5806;48.748;9.278;2023-03-13T03:52:14;4.83;;;1.33;;
11498;SDS011;5806;48.748;9.278;2023-03-13T03:54:41;5.60;;;1.20;;
11498;SDS011;5806;48.748;9.278;2023-03-13T03:57:09;4.07;;;1.43;;
11498;SDS011;5806;48.748;9.278;2023-03-13T03:59:36;5.43;;;1.00;;
11498;SDS011;5806;48.748;9.278;2023-03-13T04:02:04;4.47;;;1.37;;
11498;SDS011;5806;48.748;9.278;2023-03-13T04:04:31;5.30;;;1.33;;
11498;SDS011;5806;48.748;9.278;2023-03-13T04:06:59;3.87;;;1.20;;
11498;SDS011;5806;48.748;9.278;2023-03-13T04:09:26;2.20;;;0.80;;
11498;SDS011;5806;48.748;9.278;2023-03-13T04:11:54;3.57;;;1.20;;
11498;SDS011;5806;48.748;9.278;2023-03-13T04:14:21;5.90;;;1.10;;
11498;SDS011;5806;48.748;9.278;2023-03-13T04:16:49;2.97;;;0.87;;
11498;SDS011;5806;48.748;9.278;2023-03-13T04:19:16;2.87;;;0.90;;
11498;SDS011;5806;48.748;9.278;2023-03-13T04:21:44;5.77;;;1.40;;
11498;SDS011;5806;48.748;9.278;2023-03-13T04:24:11;4.80;;;1.10;;
11498;SDS011;5806;48.748;9.278;2023-03-13T04:26:38;2.00;;;0.80;;
11498;SDS011;5806;48.748;9.278;2023-03-13T04:29:06;3.47;;;1.27;;
11498;SDS011;5806;48.748;9.278;2023-03-13T04:31:34;4.13;;;1.00;;
11498;SDS011;5806;48.748;9.278;2023-03-13T04:34:01;2.93;;;0.90;;
11498;SDS011;5806;48.748;9.278;2023-03-13T04:36:29;1.13;;;0.77;;
11498;SDS011;5806;48.748;9.278;2023-03-13T04:38:56;5.63;;;0.90;;
11498;SDS011;5806;48.748;9.278;2023-03-13T04:41:23;4.67;;;0.90;;
11498;SDS011;5806;48.748;9.278;2023-03-13T04:43:51;1.77;;;0.67;;
11498;SDS011;5806;48.748;9.278;2023-03-13T04:46:18;2.63;;;0.80;;
11498;SDS011;5806;48.748;9.278;2023-03-13T04:48:46;3.20;;;0.93;;
11498;SDS011;5806;48.748;9.278;2023-03-13T04:51:13;2.27;;;0.63;;
11498;SDS011;5806;48.748;9.278;2023-03-13T04:53:41;3.20;;;0.80;;
11498;SDS011;5806;48.748;9.278;2023-03-13T04:56:09;0.90;;;0.50;;
11498;SDS011;5806;48.748;9.278;2023-03-13T04:58:38;1.83;;;0.57;;
11498;SDS011;5806;48.748;9.278;2023-03-13T05:01:06;1.27;;;0.40;;
11498;SDS011;5806;48.748;9.278;2023-03-13T05:03:33;0.73;;;0.50;;
11498;SDS011;5806;48.748;9.278;2023-03-13T05:06:01;0.80;;;0.40;;
11498;SDS011;5806;48.748;9.278;2023-03-13T05:08:28;0.47;;;0.40;;
11498;SDS011;5806;48.748;9.278;2023-03-13T05:10:56;1.00;;;0.60;;
11498;SDS011;5806;48.748;9.278;2023-03-13T05:13:23;0.60;;;0.30;;
11498;SDS011;5806;48.748;9.278;2023-03-13T05:15:51;0.60;;;0.50;;
11498;SDS011;5806;48.748;9.278;2023-03-13T05:18:18;0.83;;;0.50;;
11498;SDS011;5806;48.748;9.278;2023-03-13T05:20:46;0.60;;;0.50;;
11498;SDS011;5806;48.748;9.278;2023-03-13T05:23:13;0.40;;;0.40;;
11498;SDS011;5806;48.748;9.278;2023-03-13T05:25:41;1.07;;;0.40;;
11498;SDS011;5806;48.748;9.278;2023-03-13T05:28:09;1.03;;;0.50;;
11498;SDS011;5806;48.748;9.278;2023-03-13T05:30:36;0.63;;;0.40;;
11498;SDS011;5806;48.748;9.278;2023-03-13T05:33:04;0.73;;;0.60;;
11498;SDS011;5806;48.748;9.278;2023-03-13T05:35:31;0.60;;;0.60;;
11498;SDS011;5806;48.748;9.278;2023-03-13T05:37:59;0.90;;;0.70;;
11498;SDS011;5806;48.748;9.278;2023-03-13T05:40:26;1.30;;;0.50;;
11498;SDS011;5806;48.748;9.278;2023-03-13T05:42:54;1.23;;;0.50;;
11498;SDS011;5806;48.748;9.278;2023-03-13T05:45:21;1.17;;;0.70;;
11498;SDS011;5806;48.748;9.278;2023-03-13T05:47:50;1.37;;;0.57;;
11498;SDS011;5806;48.748;9.278;2023-03-13T05:50:17;1.13;;;0.60;;
11498;SDS011;5806;48.748;9.278;2023-03-13T05:52:45;0.70;;;0.70;;
11498;SDS011;5806;48.748;9.278;2023-03-13T05:55:12;0.90;;;0.60;;
11498;SDS011;5806;48.748;9.278;2023-03-13T05:57:42;1.03;;;0.60;;
11498;SDS011;5806;48.748;9.278;2023-03-13T06:00:15;2.07;;;0.60;;
11498;SDS011;5806;48.748;9.278;2023-03-13T06:02:44;1.17;;;0.60;;
11498;SDS011;5806;48.748;9.278;2023-03-13T06:05:11;1.10;;;0.60;;
11498;SDS011;5806;48.748;9.278;2023-03-13T06:07:39;0.73;;;0.70;;
11498;SDS011;5806;48.748;9.278;2023-03-13T06:10:07;0.73;;;0.50;;
11498;SDS011;5806;48.748;9.278;2023-03-13T06:12:40;0.70;;;0.70;;
11498;SDS011;5806;48.748;9.278;2023-03-13T06:15:04;0.50;;;0.50;;
11498;SDS011;5806;48.748;9.278;2023-03-13T06:17:34;0.63;;;0.43;;
11498;SDS011;5806;48.748;9.278;2023-03-13T06:20:02;0.87;;;0.50;;
11498;SDS011;5806;48.748;9.278;2023-03-13T06:22:30;0.70;;;0.60;;
11498;SDS011;5806;48.748;9.278;2023-03-13T06:24:58;0.83;;;0.40;;
11498;SDS011;5806;48.748;9.278;2023-03-13T06:27:25;1.00;;;0.60;;
11498;SDS011;5806;48.748;9.278;2023-03-13T06:29:52;0.73;;;0.60;;
11498;SDS011;5806;48.748;9.278;2023-03-13T06:32:20;1.00;;;0.60;;
11498;SDS011;5806;48.748;9.278;2023-03-13T06:34:47;0.70;;;0.70;;
11498;SDS011;5806;48.748;9.278;2023-03-13T06:37:15;1.30;;;0.90;;
11498;SDS011;5806;48.748;9.278;2023-03-13T06:39:42;1.67;;;0.63;;
11498;SDS011;5806;48.748;9.278;2023-03-13T06:42:10;2.30;;;0.70;;
11498;SDS011;5806;48.748;9.278;2023-03-13T06:44:37;0.77;;;0.63;;
11498;SDS011;5806;48.748;9.278;2023-03-13T06:47:06;0.60;;;0.53;;
11498;SDS011;5806;48.748;9.278;2023-03-13T06:49:33;0.50;;;0.50;;
11498;SDS011;5806;48.748;9.278;2023-03-13T06:52:01;0.60;;;0.60;;
11498;SDS011;5806;48.748;9.278;2023-03-13T06:54:28;1.60;;;0.70;;
11498;SDS011;5806;48.748;9.278;2023-03-13T06:56:56;1.23;;;0.60;;
11498;SDS011;5806;48.748;9.278;2023-03-13T06:59:23;1.07;;;0.60;;
11498;SDS011;5806;48.748;9.278;2023-03-13T07:01:51;1.07;;;0.70;;
11498;SDS011;5806;48.748;9.278;2023-03-13T07:04:18;1.07;;;0.80;;
11498;SDS011;5806;48.748;9.278;2023-03-13T07:06:46;1.73;;;1.00;;
11498;SDS011;5806;48.748;9.278;2023-03-13T07:09:13;1.57;;;0.93;;
11498;SDS011;5806;48.748;9.278;2023-03-13T07:11:41;3.73;;;1.30;;
11498;SDS011;5806;48.748;9.278;2023-03-13T07:14:08;1.13;;;1.07;;
11498;SDS011;5806;48.748;9.278;2023-03-13T07:16:36;3.50;;;1.27;;
11498;SDS011;5806;48.748;9.278;2023-03-13T07:19:03;2.00;;;1.30;;
11498;SDS011;5806;48.748;9.278;2023-03-13T07:21:31;3.50;;;1.37;;
11498;SDS011;5806;48.748;9.278;2023-03-13T07:23:58;2.83;;;1.43;;
11498;SDS011;5806;48.748;9.278;2023-03-13T07:26:26;3.23;;;1.20;;
11498;SDS011;5806;48.748;9.278;2023-03-13T07:28:54;3.60;;;1.60;;
11498;SDS011;5806;48.748;9.278;2023-03-13T07:31:22;2.40;;;1.40;;
11498;SDS011;5806;48.748;9.278;2023-03-13T07:33:49;1.67;;;1.50;;
11498;SDS011;5806;48.748;9.278;2023-03-13T07:36:21;1.90;;;1.43;;
11498;SDS011;5806;48.748;9.278;2023-03-13T07:38:49;4.43;;;1.87;;
11498;SDS011;5806;48.748;9.278;2023-03-13T07:41:18;2.57;;;1.70;;
11498;SDS011;5806;48.748;9.278;2023-03-13T07:43:46;1.60;;;1.40;;
11498;SDS011;5806;48.748;9.278;2023-03-13T07:46:15;2.17;;;1.40;;
11498;SDS011;5806;48.748;9.278;2023-03-13T07:48:44;4.53;;;1.70;;
11498;SDS011;5806;48.748;9.278;2023-03-13T07:51:13;4.47;;;1.80;;
11498;SDS011;5806;48.748;9.278;2023-03-13T07:53:43;3.43;;;2.03;;
11498;SDS011;5806;48.748;9.278;2023-03-13T07:56:15;4.47;;;1.70;;
11498;SDS011;5806;48.748;9.278;2023-03-13T07:58:45;5.13;;;2.03;;
11498;SDS011;5806;48.748;9.278;2023-03-13T08:03:45;5.27;;;2.10;;
11498;SDS011;5806;48.748;9.278;2023-03-13T08:06:17;4.80;;;2.03;;
11498;SDS011;5806;48.748;9.278;2023-03-13T08:08:49;3.00;;;1.67;;
11498;SDS011;5806;48.748;9.278;2023-03-13T08:11:19;4.73;;;2.27;;
11498;SDS011;5806;48.748;9.278;2023-03-13T08:13:50;3.83;;;2.00;;
11498;SDS011;5806;48.748;9.278;2023-03-13T08:16:19;5.33;;;2.00;;
11498;SDS011;5806;48.748;9.278;2023-03-13T08:18:49;2.67;;;2.03;;
11498;SDS011;5806;48.748;9.278;2023-03-13T08:21:22;3.30;;;2.10;;
11498;SDS011;5806;48.748;9.278;2023-03-13T08:23:52;5.67;;;2.60;;
11498;SDS011;5806;48.748;9.278;2023-03-13T08:26:22;4.83;;;2.27;;
11498;SDS011;5806;48.748;9.278;2023-03-13T08:28:57;4.23;;;2.10;;
11498;SDS011;5806;48.748;9.278;2023-03-13T08:31:25;6.00;;;2.17;;
11498;SDS011;5806;48.748;9.278;2023-03-13T08:34:10;4.13;;;2.43;;
11498;SDS011;5806;48.748;9.278;2023-03-13T08:36:38;5.40;;;2.10;;
11498;SDS011;5806;48.748;9.278;2023-03-13T08:39:06;3.30;;;2.07;;
11498;SDS011;5806;48.748;9.278;2023-03-13T08:41:39;7.40;;;2.33;;
11498;SDS011;5806;48.748;9.278;2023-03-13T08:44:08;10.90;;;2.60;;
11498;SDS011;5806;48.748;9.278;2023-03-13T08:46:37;6.10;;;2.60;;
11498;SDS011;5806;48.748;9.278;2023-03-13T08:49:05;11.23;;;3.27;;
11498;SDS011;5806;48.748;9.278;2023-03-13T08:51:34;5.73;;;3.07;;
11498;SDS011;5806;48.748;9.278;2023-03-13T08:54:02;6.40;;;3.07;;
11498;SDS011;5806;48.748;9.278;2023-03-13T08:56:30;7.70;;;3.30;;
11498;SDS011;5806;48.748;9.278;2023-03-13T08:59:00;6.70;;;2.67;;
11498;SDS011;5806;48.748;9.278;2023-03-13T09:01:30;5.10;;;2.60;;
11498;SDS011;5806;48.748;9.278;2023-03-13T09:03:59;5.80;;;3.00;;
11498;SDS011;5806;48.748;9.278;2023-03-13T09:06:26;7.00;;;3.00;;
11498;SDS011;5806;48.748;9.278;2023-03-13T09:08:59;8.90;;;2.90;;
11498;SDS011;5806;48.748;9.278;2023-03-13T09:11:24;4.50;;;2.70;;
11498;SDS011;5806;48.748;9.278;2023-03-13T09:13:53;6.23;;;3.10;;
11498;SDS011;5806;48.748;9.278;2023-03-13T09:16:23;6.93;;;2.77;;
11498;SDS011;5806;48.748;9.278;2023-03-13T09:18:56;4.80;;;2.83;;
11498;SDS011;5806;48.748;9.278;2023-03-13T09:21:29;7.67;;;3.00;;
11498;SDS011;5806;48.748;9.278;2023-03-13T09:23:54;5.40;;;2.80;;
11498;SDS011;5806;48.748;9.278;2023-03-13T09:26:22;6.37;;;2.83;;
11498;SDS011;5806;48.748;9.278;2023-03-13T09:28:51;7.03;;;2.63;;
11498;SDS011;5806;48.748;9.278;2023-03-13T09:31:20;6.80;;;3.30;;
11498;SDS011;5806;48.748;9.278;2023-03-13T09:33:53;4.23;;;2.50;;
11498;SDS011;5806;48.748;9.278;2023-03-13T09:36:21;4.40;;;2.43;;
11498;SDS011;5806;48.748;9.278;2023-03-13T09:38:50;4.67;;;2.60;;
11498;SDS011;5806;48.748;9.278;2023-03-13T09:44:23;5.67;;;2.30;;
11498;SDS011;5806;48.748;9.278;2023-03-13T09:52:11;5.83;;;2.63;;
11498;SDS011;5806;48.748;9.278;2023-03-13T09:54:37;9.20;;;2.60;;
11498;SDS011;5806;48.748;9.278;2023-03-13T10:02:18;4.73;;;2.30;;
11498;SDS011;5806;48.748;9.278;2023-03-13T10:07:44;3.20;;;2.00;;
11498;SDS011;5806;48.748;9.278;2023-03-13T10:10:13;4.77;;;2.10;;
11498;SDS011;5806;48.748;9.278;2023-03-13T10:12:43;3.67;;;2.30;;
11498;SDS011;5806;48.748;9.278;2023-03-13T10:17:49;7.60;;;2.53;;
11498;SDS011;5806;48.748;9.278;2023-03-13T10:20:24;6.03;;;2.27;;
11498;SDS011;5806;48.748;9.278;2023-03-13T10:23:04;3.97;;;2.10;;
11498;SDS011;5806;48.748;9.278;2023-03-13T10:25:33;2.57;;;2.20;;
11498;SDS011;5806;48.748;9.278;2023-03-13T10:28:09;5.93;;;2.20;;
11498;SDS011;5806;48.748;9.278;2023-03-13T10:30:41;4.43;;;2.00;;
11498;SDS011;5806;48.748;9.278;2023-03-13T10:36:04;4.20;;;2.17;;
11498;SDS011;5806;48.748;9.278;2023-03-13T10:38:46;3.07;;;2.00;;
11498;SDS011;5806;48.748;9.278;2023-03-13T10:43:54;3.87;;;2.07;;
11498;SDS011;5806;48.748;9.278;2023-03-13T10:46:23;4.13;;;2.10;;
11498;SDS011;5806;48.748;9.278;2023-03-13T10:48:53;3.27;;;1.90;;
11498;SDS011;5806;48.748;9.278;2023-03-13T10:51:23;4.70;;;2.10;;
11498;SDS011;5806;48.748;9.278;2023-03-13T10:53:52;4.67;;;2.13;;
11498;SDS011;5806;48.748;9.278;2023-03-13T10:56:24;4.73;;;1.87;;
11498;SDS011;5806;48.748;9.278;2023-03-13T10:58:53;2.73;;;1.87;;
11498;SDS011;5806;48.748;9.278;2023-03-13T11:01:21;2.37;;;1.60;;
11498;SDS011;5806;48.748;9.278;2023-03-13T11:03:57;3.00;;;1.90;;
11498;SDS011;5806;48.748;9.278;2023-03-13T11:06:29;4.20;;;1.57;;
11498;SDS011;5806;48.748;9.278;2023-03-13T11:09:01;2.47;;;1.70;;
11498;SDS011;5806;48.748;9.278;2023-03-13T11:11:46;1.70;;;1.50;;
11498;SDS011;5806;48.748;9.278;2023-03-13T11:14:21;1.60;;;1.50;;
11498;SDS011;5806;48.748;9.278;2023-03-13T11:16:53;4.20;;;2.20;;
11498;SDS011;5806;48.748;9.278;2023-03-13T11:19:33;3.33;;;2.00;;
11498;SDS011;5806;48.748;9.278;2023-03-13T11:24:49;3.10;;;0.90;;
11498;SDS011;5806;48.748;9.278;2023-03-13T11:32:54;1.57;;;0.60;;
11498;SDS011;5806;48.748;9.278;2023-03-13T11:35:42;2.23;;;0.60;;
11498;SDS011;5806;48.748;9.278;2023-03-13T11:41:01;1.63;;;0.70;;
11498;SDS011;5806;48.748;9.278;2023-03-13T11:43:49;0.60;;;0.60;;
11498;SDS011;5806;48.748;9.278;2023-03-13T11:49:23;1.43;;;0.50;;
11498;SDS011;5806;48.748;9.278;2023-03-13T11:52:00;2.87;;;0.53;;
11498;SDS011;5806;48.748;9.278;2023-03-13T11:55:32;2.93;;;0.77;;
11498;SDS011;5806;48.748;9.278;2023-03-13T11:57:28;0.57;;;0.50;;
11498;SDS011;5806;48.748;9.278;2023-03-13T12:00:08;12.07;;;0.73;;
11498;SDS011;5806;48.748;9.278;2023-03-13T12:05:37;1.43;;;0.40;;
11498;SDS011;5806;48.748;9.278;2023-03-13T12:08:08;2.37;;;0.70;;
11498;SDS011;5806;48.748;9.278;2023-03-13T12:10:47;0.77;;;0.30;;
11498;SDS011;5806;48.748;9.278;2023-03-13T12:13:38;0.80;;;0.40;;
11498;SDS011;5806;48.748;9.278;2023-03-13T12:16:20;1.60;;;0.30;;
11498;SDS011;5806;48.748;9.278;2023-03-13T12:18:49;1.90;;;0.40;;
11498;SDS011;5806;48.748;9.278;2023-03-13T12:21:25;0.43;;;0.40;;
11498;SDS011;5806;48.748;9.278;2023-03-13T12:24:21;3.27;;;0.40;;
11498;SDS011;5806;48.748;9.278;2023-03-13T12:26:34;0.80;;;0.53;;
11498;SDS011;5806;48.748;9.278;2023-03-13T12:29:27;0.20;;;0.20;;
11498;SDS011;5806;48.748;9.278;2023-03-13T12:32:23;1.80;;;0.30;;
11498;SDS011;5806;48.748;9.278;2023-03-13T12:34:58;0.30;;;0.30;;
11498;SDS011;5806;48.748;9.278;2023-03-13T12:37:32;1.87;;;0.63;;
11498;SDS011;5806;48.748;9.278;2023-03-13T12:42:56;0.70;;;0.43;;
11498;SDS011;5806;48.748;9.278;2023-03-13T12:45:32;1.50;;;0.80;;
11498;SDS011;5806;48.748;9.278;2023-03-13T12:56:29;1.80;;;0.80;;
11498;SDS011;5806;48.748;9.278;2023-03-13T13:01:49;3.90;;;0.67;;
11498;SDS011;5806;48.748;9.278;2023-03-13T13:04:20;1.13;;;0.70;;
11498;SDS011;5806;48.748;9.278;2023-03-13T13:06:53;0.73;;;0.53;;
11498;SDS011;5806;48.748;9.278;2023-03-13T13:09:34;0.90;;;0.60;;
11498;SDS011;5806;48.748;9.278;2023-03-13T13:12:20;2.40;;;0.90;;
11498;SDS011;5806;48.748;9.278;2023-03-13T13:20:24;12.97;;;0.80;;
11498;SDS011;5806;48.748;9.278;2023-03-13T13:22:46;1.00;;;0.60;;
11498;SDS011;5806;48.748;9.278;2023-03-13T13:25:32;1.47;;;0.70;;
11498;SDS011;5806;48.748;9.278;2023-03-13T13:28:43;0.70;;;0.70;;
11498;SDS011;5806;48.748;9.278;2023-03-13T13:30:46;2.57;;;0.80;;
11498;SDS011;5806;48.748;9.278;2023-03-13T13:38:40;0.70;;;0.70;;
11498;SDS011;5806;48.748;9.278;2023-03-13T13:43:45;1.33;;;0.90;;
11498;SDS011;5806;48.748;9.278;2023-03-13T13:46:26;1.43;;;0.70;;
11498;SDS011;5806;48.748;9.278;2023-03-13T13:49:17;1.23;;;0.77;;
11498;SDS011;5806;48.748;9.278;2023-03-13T13:51:33;4.47;;;0.90;;
11498;SDS011;5806;48.748;9.278;2023-03-13T13:54:04;0.80;;;0.80;;
11498;SDS011;5806;48.748;9.278;2023-03-13T13:56:51;2.43;;;1.03;;
11498;SDS011;5806;48.748;9.278;2023-03-13T13:59:37;1.10;;;0.83;;
11498;SDS011;5806;48.748;9.278;2023-03-13T14:04:47;2.20;;;0.80;;
11498;SDS011;5806;48.748;9.278;2023-03-13T14:10:20;2.33;;;1.23;;
11498;SDS011;5806;48.748;9.278;2023-03-13T14:12:58;0.57;;;0.57;;
11498;SDS011;5806;48.748;9.278;2023-03-13T14:15:28;0.77;;;0.73;;
11498;SDS011;5806;48.748;9.278;2023-03-13T14:18:07;1.73;;;0.60;;
11498;SDS011;5806;48.748;9.278;2023-03-13T14:20:38;3.13;;;0.40;;
11498;SDS011;5806;48.748;9.278;2023-03-13T14:23:11;1.47;;;0.60;;
11498;SDS011;5806;48.748;9.278;2023-03-13T14:28:18;2.00;;;0.60;;
11498;SDS011;5806;48.748;9.278;2023-03-13T14:30:44;0.90;;;0.53;;
11498;SDS011;5806;48.748;9.278;2023-03-13T14:33:16;0.60;;;0.60;;
11498;SDS011;5806;48.748;9.278;2023-03-13T14:35:44;1.53;;;0.67;;
11498;SDS011;5806;48.748;9.278;2023-03-13T14:38:19;3.60;;;0.70;;
11498;SDS011;5806;48.748;9.278;2023-03-13T14:40:52;0.93;;;0.60;;
11498;SDS011;5806;48.748;9.278;2023-03-13T14:43:37;0.73;;;0.50;;
11498;SDS011;5806;48.748;9.278;2023-03-13T14:46:11;1.07;;;0.57;;
11498;SDS011;5806;48.748;9.278;2023-03-13T14:48:41;0.73;;;0.47;;
11498;SDS011;5806;48.748;9.278;2023-03-13T14:51:09;0.70;;;0.40;;
11498;SDS011;5806;48.748;9.278;2023-03-13T14:53:39;0.60;;;0.60;;
11498;SDS011;5806;48.748;9.278;2023-03-13T14:56:09;1.37;;;0.57;;
11498;SDS011;5806;48.748;9.278;2023-03-13T14:58:39;0.83;;;0.43;;
11498;SDS011;5806;48.748;9.278;2023-03-13T15:01:14;1.57;;;0.57;;
11498;SDS011;5806;48.748;9.278;2023-03-13T15:03:54;2.73;;;0.70;;
11498;SDS011;5806;48.748;9.278;2023-03-13T15:06:22;3.63;;;0.50;;
11498;SDS011;5806;48.748;9.278;2023-03-13T15:11:53;1.20;;;0.33;;
11498;SDS011;5806;48.748;9.278;2023-03-13T15:17:12;0.87;;;0.40;;
11498;SDS011;5806;48.748;9.278;2023-03-13T15:19:48;1.60;;;0.43;;
11498;SDS011;5806;48.748;9.278;2023-03-13T15:22:19;0.60;;;0.37;;
11498;SDS011;5806;48.748;9.278;2023-03-13T15:25:00;0.90;;;0.50;;
11498;SDS011;5806;48.748;9.278;2023-03-13T15:27:30;0.27;;;0.27;;
11498;SDS011;5806;48.748;9.278;2023-03-13T15:29:58;0.50;;;0.37;;
11498;SDS011;5806;48.748;9.278;2023-03-13T15:32:32;3.93;;;0.40;;
11498;SDS011;5806;48.748;9.278;2023-03-13T15:35:26;1.00;;;0.60;;
11498;SDS011;5806;48.748;9.278;2023-03-13T15:37:59;4.57;;;0.60;;
11498;SDS011;5806;48.748;9.278;2023-03-13T15:40:27;0.43;;;0.40;;
11498;SDS011;5806;48.748;9.278;2023-03-13T15:42:56;0.93;;;0.57;;
11498;SDS011;5806;48.748;9.278;2023-03-13T15:45:24;1.50;;;0.60;;
11498;SDS011;5806;48.748;9.278;2023-03-13T15:47:51;1.60;;;0.50;;
11498;SDS011;5806;48.748;9.278;2023-03-13T15:50:20;1.83;;;0.50;;
11498;SDS011;5806;48.748;9.278;2023-03-13T15:52:49;0.67;;;0.60;;
11498;SDS011;5806;48.748;9.278;2023-03-13T15:55:16;1.83;;;0.53;;
11498;SDS011;5806;48.748;9.278;2023-03-13T15:57:50;1.67;;;0.80;;
11498;SDS011;5806;48.748;9.278;2023-03-13T16:00:19;1.80;;;0.67;;
11498;SDS011;5806;48.748;9.278;2023-03-13T16:02:49;1.20;;;0.83;;
11498;SDS011;5806;48.748;9.278;2023-03-13T16:05:18;2.40;;;0.50;;
11498;SDS011;5806;48.748;9.278;2023-03-13T16:07:53;0.67;;;0.50;;
11498;SDS011;5806;48.748;9.278;2023-03-13T16:10:22;2.17;;;0.73;;
11498;SDS011;5806;48.748;9.278;2023-03-13T16:12:54;1.27;;;0.80;;
11498;SDS011;5806;48.748;9.278;2023-03-13T16:15:22;1.60;;;0.90;;
11498;SDS011;5806;48.748;9.278;2023-03-13T16:17:52;1.47;;;0.73;;
11498;SDS011;5806;48.748;9.278;2023-03-13T16:20:20;1.30;;;0.73;;
11498;SDS011;5806;48.748;9.278;2023-03-13T16:22:50;1.30;;;0.70;;
11498;SDS011;5806;48.748;9.278;2023-03-13T16:25:18;4.57;;;0.80;;
11498;SDS011;5806;48.748;9.278;2023-03-13T16:27:51;1.17;;;0.80;;
11498;SDS011;5806;48.748;9.278;2023-03-13T16:30:26;2.27;;;0.83;;
11498;SDS011;5806;48.748;9.278;2023-03-13T16:32:50;1.00;;;0.73;;
11498;SDS011;5806;48.748;9.278;2023-03-13T16:35:18;1.03;;;0.50;;
11498;SDS011;5806;48.748;9.278;2023-03-13T16:37:46;1.53;;;0.90;;
11498;SDS011;5806;48.748;9.278;2023-03-13T16:40:16;2.47;;;0.80;;
11498;SDS011;5806;48.748;9.278;2023-03-13T16:42:45;2.80;;;1.10;;
11498;SDS011;5806;48.748;9.278;2023-03-13T16:45:13;2.83;;;0.87;;
11498;SDS011;5806;48.748;9.278;2023-03-13T16:47:41;1.13;;;0.80;;
11498;SDS011;5806;48.748;9.278;2023-03-13T16:50:18;3.23;;;1.13;;
11498;SDS011;5806;48.748;9.278;2023-03-13T16:52:59;3.13;;;1.20;;
11498;SDS011;5806;48.748;9.278;2023-03-13T16:55:27;3.73;;;1.30;;